Time;durP1;ratioP1;P1;durP2;ratioP2;P2;SDS_P1;SDS_P2;PMS_P1;PMS_P2;Temp;Humidity;BMP_temperature;BMP_pressure;BME280_temperature;BME280_humidity;BME280_pressure;Samples;Min_cycle;Max_cycle;Signal;HPM_P1;HPM_P2
2022/10/27 00:01:05;;;;;;;5.18;2.45;;;;;;;19.35;68.18;102132.09;5030440;28;20104;-44
2022/10/27 00:03:30;;;;;;;8.00;2.92;;;;;;;19.28;69.42;102140.91;5030450;28;20022;-45
2022/10/27 00:05:55;;;;;;;6.53;2.50;;;;;;;19.35;68.72;102136.50;5029055;28;20021;-44
2022/10/27 00:08:21;;;;;;;6.43;2.80;;;;;;;19.31;68.64;102135.63;5030525;28;20036;-42
2022/10/27 00:10:58;;;;;;;6.68;3.00;;;;;;;19.27;69.51;102130.38;5030029;28;20886;-42
2022/10/27 00:13:23;;;;;;;8.80;2.90;;;;;;;19.01;70.56;102135.69;5029986;28;20489;-44
2022/10/27 00:15:56;;;;;;;7.28;2.90;;;;;;;19.08;70.58;102132.16;5030161;28;20021;-45
2022/10/27 00:18:21;;;;;;;6.97;2.63;;;;;;;19.19;69.97;102126.84;5030380;28;20021;-47
2022/10/27 00:21:06;;;;;;;6.97;2.90;;;;;;;19.36;69.09;102139.16;5029519;28;20128;-43
2022/10/27 00:23:32;;;;;;;5.22;2.83;;;;;;;19.34;69.04;102140.00;5030546;28;20053;-43
2022/10/27 00:25:58;;;;;;;6.95;3.15;;;;;;;19.30;69.38;102140.91;5030343;28;20060;-42
2022/10/27 00:28:24;;;;;;;6.03;2.90;;;;;;;19.33;69.63;102140.94;5030173;28;20022;-43
2022/10/27 00:31:01;;;;;;;7.15;3.17;;;;;;;19.37;69.73;102146.19;5029970;28;20091;-43
2022/10/27 00:33:26;;;;;;;6.10;2.70;;;;;;;19.41;69.52;102147.94;5029790;28;20022;-43
2022/10/27 00:35:52;;;;;;;8.13;3.38;;;;;;;19.41;69.29;102142.66;5029832;28;20331;-45
2022/10/27 00:38:17;;;;;;;8.98;3.20;;;;;;;19.37;68.95;102148.84;5029638;28;20026;-43
2022/10/27 00:40:42;;;;;;;6.97;3.05;;;;;;;19.27;69.30;102152.38;5029546;28;20014;-44
2022/10/27 00:43:26;;;;;;;5.90;3.17;;;;;;;18.97;70.79;102161.22;5029601;28;20072;-46
2022/10/27 00:45:54;;;;;;;7.07;3.17;;;;;;;19.14;69.95;102150.66;5027906;28;20611;-44
2022/10/27 00:48:20;;;;;;;7.88;3.30;;;;;;;19.32;69.28;102153.25;5029306;28;20025;-40
2022/10/27 00:50:45;;;;;;;6.93;3.60;;;;;;;19.25;69.21;102159.44;5029169;28;20385;-45
2022/10/27 00:53:11;;;;;;;9.18;3.50;;;;;;;19.10;70.13;102159.44;5028450;28;20040;-42
2022/10/27 00:55:38;;;;;;;13.70;3.60;;;;;;;19.17;69.82;102160.31;5029462;28;20037;-43
2022/10/27 00:58:08;;;;;;;9.00;3.58;;;;;;;19.22;69.47;102154.16;5029958;28;20071;-43
2022/10/27 01:00:40;;;;;;;6.57;3.30;;;;;;;19.27;69.35;102151.53;5029110;28;20025;-44
2022/10/27 01:03:07;;;;;;;7.10;3.33;;;;;;;19.16;69.67;102148.88;5029523;28;20127;-46
2022/10/27 01:05:34;;;;;;;9.43;3.38;;;;;;;19.17;69.98;102148.00;5029168;28;20036;-44
2022/10/27 01:08:03;;;;;;;5.47;3.22;;;;;;;19.24;69.34;102154.16;5029962;28;20025;-43
2022/10/27 01:10:29;;;;;;;7.63;3.45;;;;;;;19.19;69.16;102155.94;5029514;28;20113;-43
2022/10/27 01:12:55;;;;;;;9.45;3.20;;;;;;;19.20;68.89;102153.28;5029194;28;20104;-43
2022/10/27 01:16:03;;;;;;;8.50;3.40;;;;;;;19.10;69.15;102155.94;5029325;28;20025;-42
2022/10/27 01:18:49;;;;;;;8.63;3.20;;;;;;;19.04;69.15;102156.81;5006994;28;20050;-44
2022/10/27 01:21:48;;;;;;;8.48;3.63;;;;;;;18.84;70.14;102148.94;5007164;28;20018;-44
2022/10/27 01:24:50;;;;;;;11.20;4.13;;;;;;;18.92;70.50;102143.63;5029525;28;20033;-46
2022/10/27 01:27:55;;;;;;;7.47;3.40;;;;;;;19.01;69.54;102152.44;5010902;28;20110;-45
2022/10/27 01:30:21;;;;;;;8.07;3.40;;;;;;;19.00;69.58;102149.78;5032142;28;20512;-41
2022/10/27 01:33:01;;;;;;;7.72;3.63;;;;;;;18.96;69.31;102158.63;5033778;28;20017;-42
2022/10/27 01:35:35;;;;;;;8.27;4.10;;;;;;;18.89;69.34;102163.03;5033457;28;20528;-43
2022/10/27 01:38:23;;;;;;;9.07;3.92;;;;;;;18.74;70.26;102159.47;5033589;28;20563;-44
2022/10/27 01:41:00;;;;;;;8.80;3.85;;;;;;;18.88;69.72;102153.31;5034210;28;20395;-43
2022/10/27 01:43:28;;;;;;;6.57;3.67;;;;;;;18.81;69.85;102158.59;5036614;28;20037;-43
2022/10/27 01:45:55;;;;;;;7.05;3.85;;;;;;;18.81;69.65;102154.19;5033162;28;20079;-43
2022/10/27 01:48:21;;;;;;;9.35;3.92;;;;;;;18.81;69.68;102154.19;5033012;28;20037;-44
2022/10/27 01:50:46;;;;;;;7.38;3.38;;;;;;;18.77;69.56;102155.09;5032589;28;20036;-44
2022/10/27 01:53:12;;;;;;;7.97;4.00;;;;;;;18.72;69.81;102137.47;5033307;28;20469;-42
2022/10/27 01:56:03;;;;;;;7.93;3.83;;;;;;;18.67;69.84;102140.09;5031792;28;20032;-43
2022/10/27 01:59:06;;;;;;;6.88;3.72;;;;;;;18.58;70.43;102140.13;5032959;28;20120;-41
2022/10/27 02:01:52;;;;;;;8.82;4.07;;;;;;;18.59;70.68;102139.25;5032894;28;20037;-44
2022/10/27 02:04:38;;;;;;;7.00;3.80;;;;;;;18.69;70.24;102140.09;5032844;28;20028;-42
2022/10/27 02:07:11;;;;;;;13.27;4.03;;;;;;;18.42;70.97;102144.44;5032390;28;20029;-43
2022/10/27 02:09:55;;;;;;;8.68;3.65;;;;;;;18.62;70.45;102132.19;5032384;28;20112;-45
2022/10/27 02:12:30;;;;;;;7.95;3.88;;;;;;;18.49;70.70;102127.75;5032241;28;20037;-47
2022/10/27 02:14:59;;;;;;;9.13;3.80;;;;;;;18.43;71.37;102125.09;5032590;28;20025;-44
2022/10/27 02:17:31;;;;;;;9.93;3.83;;;;;;;18.30;71.64;102131.22;5032522;28;20029;-44
2022/10/27 02:20:01;;;;;;;8.60;3.90;;;;;;;18.54;70.74;102130.41;5032249;28;20025;-42
2022/10/27 02:22:30;;;;;;;7.15;3.83;;;;;;;18.43;70.90;102133.00;5032326;28;20033;-43
2022/10/27 02:24:56;;;;;;;8.90;4.10;;;;;;;18.28;71.39;102121.56;5031198;28;20053;-42
2022/10/27 02:27:40;;;;;;;7.18;3.78;;;;;;;18.44;71.19;102136.53;5032393;28;20064;-42
2022/10/27 02:30:07;;;;;;;6.97;3.80;;;;;;;18.38;71.20;102129.50;5032259;28;20404;-42
2022/10/27 02:32:33;;;;;;;8.40;3.70;;;;;;;18.51;70.51;102128.63;5032009;28;20476;-44
2022/10/27 02:34:59;;;;;;;7.32;3.60;;;;;;;18.53;69.95;102123.34;5031897;28;20396;-46
2022/10/27 02:37:32;;;;;;;10.07;3.97;;;;;;;18.57;69.88;102117.22;5032013;28;20396;-43
2022/10/27 02:39:58;;;;;;;10.02;3.83;;;;;;;18.24;71.17;102113.63;5031731;28;20029;-46
2022/10/27 02:42:23;;;;;;;8.05;3.70;;;;;;;18.27;71.14;102117.16;5031667;28;20083;-43
2022/10/27 02:44:48;;;;;;;8.23;3.75;;;;;;;18.39;70.91;102117.16;5031537;28;20120;-44
2022/10/27 02:47:14;;;;;;;11.98;3.80;;;;;;;18.44;70.89;102113.66;5031580;28;20108;-46
2022/10/27 02:49:39;;;;;;;7.93;3.90;;;;;;;18.46;70.30;102114.53;5031825;28;20076;-43
2022/10/27 02:52:04;;;;;;;7.35;3.90;;;;;;;18.35;70.99;102115.41;5031869;28;20052;-43
2022/10/27 02:54:30;;;;;;;8.80;3.85;;;;;;;18.52;70.14;102116.31;5031777;28;20040;-43
2022/10/27 02:56:56;;;;;;;6.88;3.50;;;;;;;18.41;70.49;102113.66;5031588;28;20021;-43
2022/10/27 02:59:21;;;;;;;6.72;3.88;;;;;;;18.40;70.14;102118.94;5051182;23;20084;-45
2022/10/27 03:01:47;;;;;;;8.32;3.72;;;;;;;18.33;70.29;102117.16;5014851;28;20041;-44
2022/10/27 03:04:12;;;;;;;7.15;3.60;;;;;;;18.30;70.29;102117.19;5016282;28;20022;-43
2022/10/27 03:06:37;;;;;;;8.82;3.60;;;;;;;18.26;70.40;102116.28;5015927;28;20049;-45
2022/10/27 03:09:03;;;;;;;8.65;3.78;;;;;;;18.25;70.45;102111.88;5015985;28;20037;-46
2022/10/27 03:11:28;;;;;;;7.88;3.58;;;;;;;18.21;70.37;102097.81;5015517;28;20124;-43
2022/10/27 03:13:53;;;;;;;7.63;3.70;;;;;;;18.20;70.57;102103.06;5015063;28;20397;-43
2022/10/27 03:16:19;;;;;;;7.55;3.50;;;;;;;18.20;70.54;102105.72;5015062;28;20026;-47
2022/10/27 03:18:44;;;;;;;9.38;4.20;;;;;;;18.15;71.21;102110.09;5013277;28;20037;-45
2022/10/27 03:21:09;;;;;;;8.57;3.75;;;;;;;18.13;70.92;102103.94;5013850;28;20057;-45
2022/10/27 03:23:35;;;;;;;7.70;3.72;;;;;;;17.87;72.16;102108.28;5013964;28;20028;-43
2022/10/27 03:26:00;;;;;;;8.25;3.95;;;;;;;17.97;71.60;102112.69;5014435;28;20087;-44
2022/10/27 03:28:29;;;;;;;7.53;3.55;;;;;;;18.10;71.39;102109.22;5014558;28;20034;-44
2022/10/27 03:30:54;;;;;;;8.57;3.65;;;;;;;18.18;70.89;102112.72;5013770;28;20026;-44
2022/10/27 03:33:19;;;;;;;7.78;3.90;;;;;;;18.24;70.62;102110.09;5014322;28;20083;-43
2022/10/27 03:35:45;;;;;;;9.68;3.50;;;;;;;18.12;70.96;102107.44;5013403;28;20481;-48
2022/10/27 03:38:11;;;;;;;6.32;3.28;;;;;;;18.19;70.51;102112.75;5013089;28;20033;-45
2022/10/27 03:40:37;;;;;;;6.53;3.30;;;;;;;18.14;70.57;102114.50;5029177;28;20224;-42
2022/10/27 03:43:02;;;;;;;6.10;3.22;;;;;;;18.07;70.68;102123.28;5014423;28;20374;-46
2022/10/27 03:45:28;;;;;;;5.63;3.22;;;;;;;18.04;70.64;102131.19;5012824;28;20034;-44
2022/10/27 03:48:09;;;;;;;8.30;3.80;;;;;;;18.02;71.04;102122.38;5013413;28;20375;-42
2022/10/27 03:50:35;;;;;;;8.50;3.70;;;;;;;18.12;70.75;102133.84;5012931;28;20037;-45
2022/10/27 03:53:02;;;;;;;8.68;3.80;;;;;;;18.09;70.51;102134.72;5013465;28;20026;-44
2022/10/27 03:55:28;;;;;;;8.48;3.60;;;;;;;18.05;70.39;102132.09;5014289;28;20026;-45
2022/10/27 03:57:54;;;;;;;8.98;3.47;;;;;;;17.97;70.58;102128.53;5013384;28;20315;-44
2022/10/27 04:00:20;;;;;;;8.75;3.50;;;;;;;17.98;70.72;102133.81;5014520;28;20034;-46
2022/10/27 04:02:46;;;;;;;10.57;3.92;;;;;;;17.95;70.44;102132.91;5014682;28;20033;-45
2022/10/27 04:05:11;;;;;;;8.07;3.75;;;;;;;17.90;70.44;102138.19;5014154;28;20370;-44
2022/10/27 04:07:36;;;;;;;8.45;3.60;;;;;;;17.84;70.58;102139.03;5014061;28;20437;-44
2022/10/27 04:10:02;;;;;;;8.60;3.80;;;;;;;17.79;70.84;102138.16;5013739;28;20022;-42
2022/10/27 04:12:27;;;;;;;8.07;3.80;;;;;;;17.76;71.17;102143.41;5012686;28;20033;-44
2022/10/27 04:14:52;;;;;;;8.13;3.60;;;;;;;17.78;71.09;102140.78;5012685;28;20481;-46
2022/10/27 04:17:18;;;;;;;8.40;3.50;;;;;;;17.79;70.97;102138.16;5011905;28;20037;-45
2022/10/27 04:19:43;;;;;;;6.70;3.60;;;;;;;17.79;70.75;102135.50;5011983;28;20048;-46
2022/10/27 04:22:09;;;;;;;6.05;3.25;;;;;;;17.78;71.06;102131.13;5011175;28;20721;-44
2022/10/27 04:24:34;;;;;;;5.93;3.10;;;;;;;17.78;71.01;102138.13;5012962;28;20029;-47
2022/10/27 04:26:59;;;;;;;6.10;3.50;;;;;;;17.76;71.03;102143.41;5013583;28;20046;-45
2022/10/27 04:29:25;;;;;;;8.13;3.60;;;;;;;17.72;71.21;102146.91;5011885;28;20036;-44
2022/10/27 04:31:50;;;;;;;7.30;3.28;;;;;;;17.81;71.54;102140.78;5013062;28;20049;-48
2022/10/27 04:34:15;;;;;;;8.52;3.63;;;;;;;17.84;71.71;102136.41;5012997;28;20049;-39
2022/10/27 04:36:40;;;;;;;7.20;3.67;;;;;;;17.89;72.30;102135.53;5012139;28;20029;-37
2022/10/27 04:39:06;;;;;;;8.18;3.70;;;;;;;17.83;71.92;102137.28;5012094;28;20030;-39
2022/10/27 04:41:31;;;;;;;6.57;3.40;;;;;;;18.04;71.50;102135.59;5011585;28;20026;-37
2022/10/27 04:43:56;;;;;;;8.15;3.10;;;;;;;18.11;71.19;102134.75;5011124;28;20026;-40
2022/10/27 04:46:22;;;;;;;9.25;3.40;;;;;;;18.11;70.73;102129.47;5011265;28;20018;-38
2022/10/27 04:48:47;;;;;;;9.55;3.63;;;;;;;18.08;70.87;102127.69;5011818;28;20132;-38
2022/10/27 04:51:13;;;;;;;7.82;3.05;;;;;;;18.01;71.08;102123.25;5010334;28;20030;-39
2022/10/27 04:53:38;;;;;;;6.93;3.20;;;;;;;17.89;71.48;102127.63;5011791;28;20034;-39
2022/10/27 04:56:04;;;;;;;6.13;3.15;;;;;;;17.94;70.69;102128.50;5013693;28;20025;-38
2022/10/27 04:58:29;;;;;;;8.73;3.40;;;;;;;18.03;70.49;102133.81;5015330;28;20087;-38
2022/10/27 05:00:55;;;;;;;7.28;3.30;;;;;;;18.03;70.42;102126.78;5014896;28;20026;-39
2022/10/27 05:03:20;;;;;;;8.27;3.13;;;;;;;17.73;72.12;102122.31;5014675;28;20034;-41
2022/10/27 05:05:45;;;;;;;6.78;3.42;;;;;;;17.95;71.25;102125.00;5012737;28;20061;-38
2022/10/27 05:08:11;;;;;;;7.85;3.35;;;;;;;18.05;70.76;102125.00;5011990;28;20053;-39
2022/10/27 05:10:37;;;;;;;7.65;3.05;;;;;;;18.02;70.52;102127.66;5010760;28;20084;-41
2022/10/27 05:13:02;;;;;;;6.45;3.10;;;;;;;17.96;71.02;102113.56;5010103;28;20514;-39
2022/10/27 05:15:27;;;;;;;7.15;3.15;;;;;;;17.86;71.21;102104.75;5010144;28;20018;-39
2022/10/27 05:17:53;;;;;;;8.63;3.10;;;;;;;17.91;70.91;102113.56;5011566;28;20489;-37
2022/10/27 05:20:18;;;;;;;5.28;2.97;;;;;;;18.00;70.67;102105.66;5011962;28;20132;-39
2022/10/27 05:22:44;;;;;;;6.32;3.00;;;;;;;18.17;69.80;102108.34;5012165;28;20104;-41
2022/10/27 05:25:10;;;;;;;6.60;2.75;;;;;;;18.16;69.48;102103.94;5011207;28;20026;-37
2022/10/27 05:27:36;;;;;;;7.20;2.95;;;;;;;17.96;70.19;102109.19;5009845;28;20490;-41
2022/10/27 05:30:06;;;;;;;6.60;3.00;;;;;;;18.18;69.72;102107.44;5009750;28;20413;-38
2022/10/27 05:32:31;;;;;;;6.22;2.70;;;;;;;18.22;69.40;102109.25;5009706;28;20053;-40
2022/10/27 05:34:56;;;;;;;11.38;2.97;;;;;;;18.21;69.61;102112.75;5010347;28;20120;-37
2022/10/27 05:37:22;;;;;;;7.45;2.75;;;;;;;18.23;69.40;102105.72;5009887;28;20064;-39
2022/10/27 05:39:48;;;;;;;5.72;2.90;;;;;;;18.22;69.71;102106.59;5010307;28;20034;-39
2022/10/27 05:42:13;;;;;;;7.43;2.83;;;;;;;18.23;69.47;102106.63;5010242;28;20030;-38
2022/10/27 05:44:38;;;;;;;6.60;2.90;;;;;;;18.22;69.25;102101.31;5011029;28;20064;-39
2022/10/27 05:47:04;;;;;;;9.10;2.78;;;;;;;18.12;69.47;102100.41;5008371;28;20026;-37
2022/10/27 05:49:29;;;;;;;5.15;2.55;;;;;;;18.13;69.35;102101.28;5009768;28;20076;-39
2022/10/27 05:51:54;;;;;;;6.25;2.40;;;;;;;18.14;68.87;102092.50;5009602;28;20045;-39
2022/10/27 05:54:20;;;;;;;8.45;2.88;;;;;;;17.81;69.94;102082.75;5009716;28;20034;-39
2022/10/27 05:56:45;;;;;;;7.22;2.60;;;;;;;17.89;69.63;102077.50;5010816;28;20018;-40
2022/10/27 05:59:11;;;;;;;6.82;2.40;;;;;;;17.88;69.57;102083.63;5009083;28;20055;-42
2022/10/27 06:01:36;;;;;;;5.45;2.40;;;;;;;18.12;68.83;102081.06;5009778;28;20064;-39
2022/10/27 06:04:02;;;;;;;6.53;2.50;;;;;;;18.14;68.11;102068.75;5010018;28;20065;-38
2022/10/27 06:06:27;;;;;;;6.00;2.40;;;;;;;18.09;68.43;102078.41;5009610;28;20474;-39
2022/10/27 06:08:53;;;;;;;3.90;2.25;;;;;;;17.84;68.92;102074.84;5010807;28;20025;-39
2022/10/27 06:11:18;;;;;;;5.60;2.10;;;;;;;17.97;68.38;102076.66;5013169;28;20026;-39
2022/10/27 06:13:43;;;;;;;9.52;2.40;;;;;;;18.08;67.75;102071.38;5013398;28;20036;-39
2022/10/27 06:16:09;;;;;;;7.30;2.40;;;;;;;18.14;67.45;102063.47;5013133;28;20042;-40
2022/10/27 06:18:34;;;;;;;3.97;1.92;;;;;;;18.14;67.15;102067.00;5013416;28;20429;-40
2022/10/27 06:20:59;;;;;;;6.90;2.20;;;;;;;17.88;68.00;102062.53;5012720;28;20045;-38
2022/10/27 06:23:25;;;;;;;4.78;2.33;;;;;;;18.09;67.50;102062.59;5012962;28;20056;-40
2022/10/27 06:25:50;;;;;;;7.45;2.35;;;;;;;18.01;67.50;102064.31;5012602;28;20569;-40
2022/10/27 06:28:15;;;;;;;5.13;2.30;;;;;;;18.17;66.77;102060.84;5012895;28;20034;-41
2022/10/27 06:30:42;;;;;;;5.55;2.25;;;;;;;18.21;66.62;102055.56;5012333;28;20125;-41
2022/10/27 06:33:08;;;;;;;6.57;2.13;;;;;;;18.06;67.07;102052.91;5012739;28;20026;-42
2022/10/27 06:35:33;;;;;;;5.47;2.30;;;;;;;18.07;67.04;102053.78;5012914;28;20539;-40
2022/10/27 06:37:58;;;;;;;4.65;2.00;;;;;;;18.11;66.86;102050.28;5015107;28;20048;-40
2022/10/27 06:40:24;;;;;;;5.30;2.25;;;;;;;17.81;67.71;102054.59;5013934;28;20037;-37
2022/10/27 06:42:49;;;;;;;5.93;2.60;;;;;;;17.84;67.72;102053.75;5012856;28;20029;-39
2022/10/27 06:45:17;;;;;;;5.60;2.20;;;;;;;17.72;68.10;102051.06;5012495;28;20065;-40
2022/10/27 06:47:42;;;;;;;7.57;2.53;;;;;;;18.00;66.90;102052.00;5012638;28;20570;-39
2022/10/27 06:50:08;;;;;;;4.00;2.22;;;;;;;18.16;66.11;102048.53;5012387;28;20112;-39
2022/10/27 06:52:39;;;;;;;6.80;2.50;;;;;;;17.79;67.69;102052.84;5013331;28;20061;-42
2022/10/27 06:55:05;;;;;;;5.53;2.30;;;;;;;17.90;67.29;102059.03;5012568;28;20417;-39
2022/10/27 06:57:39;;;;;;;7.57;2.45;;;;;;;17.86;67.63;102062.56;5014187;28;20322;-40
2022/10/27 07:00:05;;;;;;;5.93;2.60;;;;;;;17.67;68.00;102056.34;5017217;28;20172;-40
2022/10/27 07:02:30;;;;;;;5.47;2.35;;;;;;;17.94;67.08;102054.63;5012216;28;20037;-40
2022/10/27 07:04:56;;;;;;;6.15;2.45;;;;;;;17.93;66.94;102056.38;5011992;28;20049;-39
2022/10/27 07:07:21;;;;;;;8.07;2.53;;;;;;;17.92;67.23;102057.28;5012328;28;20076;-38
2022/10/27 07:09:46;;;;;;;5.78;2.40;;;;;;;17.91;66.99;102049.38;5012150;28;20122;-40
2022/10/27 07:12:12;;;;;;;5.70;2.53;;;;;;;18.13;66.30;102045.88;5012013;28;20320;-38
2022/10/27 07:14:37;;;;;;;6.03;2.72;;;;;;;18.10;66.43;102052.03;5012193;28;20057;-39
2022/10/27 07:17:02;;;;;;;8.15;2.92;;;;;;;18.27;65.71;102051.16;5012883;28;20072;-39
2022/10/27 07:19:27;;;;;;;8.00;2.83;;;;;;;18.25;65.77;102052.03;5012381;28;20034;-37
2022/10/27 07:21:53;;;;;;;6.30;2.53;;;;;;;18.37;65.13;102053.78;5011915;28;20141;-38
2022/10/27 07:24:18;;;;;;;5.38;2.50;;;;;;;18.33;65.32;102057.31;5014686;28;20330;-39
2022/10/27 07:26:44;;;;;;;6.57;2.58;;;;;;;18.30;65.70;102059.94;5013941;28;20434;-40
2022/10/27 07:29:09;;;;;;;7.18;2.50;;;;;;;18.23;65.64;102061.75;5014913;28;20028;-41
2022/10/27 07:31:34;;;;;;;5.03;2.40;;;;;;;18.23;66.12;102066.13;5014142;28;20504;-41
2022/10/27 07:33:59;;;;;;;6.18;2.58;;;;;;;18.10;66.21;102061.72;5012951;28;20117;-39
2022/10/27 07:36:25;;;;;;;6.47;2.55;;;;;;;18.06;66.20;102060.81;5013147;28;20497;-38
2022/10/27 07:38:50;;;;;;;6.13;2.50;;;;;;;18.19;66.07;102065.22;5013011;28;20054;-40
2022/10/27 07:41:15;;;;;;;8.82;2.88;;;;;;;18.20;65.75;102060.84;5011172;28;20022;-37
2022/10/27 07:43:41;;;;;;;5.85;2.60;;;;;;;18.21;65.92;102057.31;5011847;28;20470;-39
2022/10/27 07:46:06;;;;;;;6.60;2.95;;;;;;;18.29;65.53;102052.94;5011785;28;20109;-38
2022/10/27 07:48:31;;;;;;;6.38;2.80;;;;;;;18.33;65.49;102059.97;5011242;28;20022;-37
2022/10/27 07:50:56;;;;;;;6.68;2.80;;;;;;;18.44;64.90;102052.91;5010884;28;20048;-40
2022/10/27 07:53:22;;;;;;;7.13;2.90;;;;;;;18.56;64.43;102046.78;5011321;28;20417;-40
2022/10/27 07:55:47;;;;;;;5.15;2.88;;;;;;;18.87;63.69;102053.78;5011128;28;20474;-39
2022/10/27 07:58:14;;;;;;;6.40;3.03;;;;;;;18.95;63.29;102048.50;5010872;28;20076;-38
2022/10/27 08:00:42;;;;;;;7.78;2.92;;;;;;;18.93;63.15;102044.97;5010651;28;20493;-38
2022/10/27 08:03:10;;;;;;;5.07;2.65;;;;;;;19.29;62.18;102044.84;5010897;28;20037;-41
2022/10/27 08:05:36;;;;;;;5.07;2.63;;;;;;;19.46;61.77;102043.94;5010856;28;21060;-38
2022/10/27 08:08:04;;;;;;;5.70;2.97;;;;;;;19.64;60.94;102042.06;5010733;28;20029;-44
2022/10/27 08:10:31;;;;;;;6.63;2.60;;;;;;;19.66;60.72;102034.13;5010408;28;20033;-42
2022/10/27 08:12:56;;;;;;;5.32;2.58;;;;;;;19.75;60.35;102037.63;5011041;28;20026;-39
2022/10/27 08:15:22;;;;;;;7.15;2.47;;;;;;;19.88;60.12;102042.84;5011060;28;20136;-41
2022/10/27 08:17:56;;;;;;;6.63;2.60;;;;;;;19.98;59.56;102041.88;5010867;28;20022;-40
2022/10/27 08:20:22;;;;;;;;;;;;;;;20.05;59.64;102040.94;5011362;28;20030;-39
2022/10/27 08:22:58;;;;;;;5.30;2.58;;;;;;;19.79;59.62;102034.06;5011053;28;19909;-39
2022/10/27 08:25:25;;;;;;;5.30;2.38;;;;;;;20.08;59.08;102033.84;5010806;28;20026;-40
2022/10/27 08:27:51;;;;;;;4.30;2.33;;;;;;;20.17;58.95;102039.09;5010715;28;20045;-40
2022/10/27 08:30:16;;;;;;;5.07;2.42;;;;;;;19.96;59.02;102035.69;5010752;28;20045;-40
2022/10/27 08:32:41;;;;;;;5.60;2.35;;;;;;;20.36;58.25;102026.59;5010232;28;20061;-42
2022/10/27 08:35:07;;;;;;;7.70;2.33;;;;;;;20.26;57.77;102025.75;5011244;28;20022;-40
2022/10/27 08:37:33;;;;;;;5.03;2.33;;;;;;;20.54;57.15;102025.56;5010582;28;20037;-40
2022/10/27 08:39:58;;;;;;;5.07;2.00;;;;;;;20.71;56.88;102020.97;5010348;28;20029;-39
2022/10/27 08:42:35;;;;;;;6.13;1.95;;;;;;;20.65;55.94;102003.38;5010273;28;20545;-43
2022/10/27 08:45:08;;;;;;;2.63;1.50;;;;;;;20.64;55.27;101995.41;5010129;28;20041;-40
2022/10/27 08:47:33;;;;;;;2.88;1.60;;;;;;;20.39;55.05;101993.91;5010803;28;20061;-40
2022/10/27 08:50:18;;;;;;;4.80;1.80;;;;;;;20.75;54.95;101998.84;5010751;28;20160;-42
2022/10/27 08:52:47;;;;;;;5.53;1.35;;;;;;;21.06;54.48;102005.53;5010650;28;20112;-41
2022/10/27 08:55:13;;;;;;;4.40;1.67;;;;;;;21.14;54.28;101992.19;5010941;28;20052;-41
2022/10/27 08:57:44;;;;;;;5.50;1.55;;;;;;;21.05;53.38;101992.28;5011518;28;20111;-41
2022/10/27 09:00:13;;;;;;;3.33;1.40;;;;;;;20.94;52.66;101989.78;5046320;23;20105;-42
2022/10/27 09:02:54;;;;;;;2.85;1.38;;;;;;;21.48;52.19;101981.16;5049315;28;20049;-45
2022/10/27 09:05:34;;;;;;;3.15;1.30;;;;;;;21.64;52.11;101996.88;5049413;28;20075;-44
2022/10/27 09:08:24;;;;;;;3.97;1.30;;;;;;;21.74;51.26;101985.19;5049744;28;20028;-44
2022/10/27 09:11:15;;;;;;;4.40;1.48;;;;;;;21.89;50.94;101985.88;5049903;28;20591;-44
2022/10/27 09:13:52;;;;;;;6.28;1.50;;;;;;;21.77;50.52;101982.47;5049687;28;20021;-46
2022/10/27 09:16:33;;;;;;;2.90;1.27;;;;;;;21.95;50.45;101981.38;5049526;28;20017;-48
2022/10/27 09:19:02;;;;;;;4.10;1.52;;;;;;;21.72;50.58;101986.13;5049571;28;20021;-44
2022/10/27 09:21:32;;;;;;;4.28;1.40;;;;;;;21.98;50.34;101988.41;5049363;28;20396;-42
2022/10/27 09:24:05;;;;;;;5.53;1.48;;;;;;;22.03;50.49;101991.84;5053016;28;20032;-44
2022/10/27 09:26:32;;;;;;;4.68;1.85;;;;;;;21.87;50.95;101988.53;5053277;28;20049;-43
2022/10/27 09:29:01;;;;;;;3.80;1.13;;;;;;;21.94;50.75;101982.25;5054651;28;20112;-41
2022/10/27 09:31:41;;;;;;;4.95;1.50;;;;;;;21.82;51.32;101972.69;5054880;28;20029;-46
2022/10/27 09:34:15;;;;;;;3.50;1.40;;;;;;;21.57;51.08;101966.00;5054455;28;20021;-45
2022/10/27 09:36:40;;;;;;;3.90;1.42;;;;;;;21.94;51.05;101968.97;5055577;28;20029;-42
2022/10/27 09:39:07;;;;;;;4.25;1.50;;;;;;;21.88;51.81;101969.06;5054079;28;20045;-42
2022/10/27 09:41:33;;;;;;;10.68;1.60;;;;;;;21.97;51.32;101955.66;5049617;28;20120;-47
2022/10/27 09:43:59;;;;;;;9.90;1.60;;;;;;;22.09;50.71;101946.59;5050831;28;20081;-44
2022/10/27 09:46:27;;;;;;;4.35;1.52;;;;;;;21.89;50.95;101935.44;5053235;28;20032;-44
2022/10/27 09:48:57;;;;;;;7.00;1.58;;;;;;;22.02;50.61;101945.84;5053172;28;20384;-44
2022/10/27 09:51:25;;;;;;;5.93;1.45;;;;;;;22.04;50.77;101945.81;5053067;28;20389;-42
2022/10/27 09:53:52;;;;;;;5.82;1.52;;;;;;;21.85;50.89;101943.44;5054499;28;20024;-45
2022/10/27 09:56:30;;;;;;;6.72;1.30;;;;;;;22.18;50.33;101944.69;5054500;28;20034;-44
2022/10/27 09:59:02;;;;;;;5.38;1.38;;;;;;;22.24;50.84;101938.38;5053299;28;20036;-48
2022/10/27 10:01:48;;;;;;;6.28;1.40;;;;;;;22.15;50.59;101925.25;5052326;28;20044;-43
2022/10/27 10:04:21;;;;;;;3.78;1.88;;;;;;;22.35;50.03;101936.41;5052821;28;20032;-44
2022/10/27 10:06:58;;;;;;;7.95;1.63;;;;;;;22.29;50.70;101923.22;5052659;28;20054;-43
2022/10/27 10:09:27;;;;;;;4.43;1.75;;;;;;;22.32;50.41;101933.81;5053692;28;20025;-42
2022/10/27 10:12:32;;;;;;;5.30;1.70;;;;;;;22.54;49.77;101929.84;5052729;28;20025;-42
2022/10/27 10:15:09;;;;;;;5.97;1.50;;;;;;;22.63;49.84;101936.75;5030675;28;20112;-43
2022/10/27 10:17:36;;;;;;;4.63;1.48;;;;;;;22.78;49.75;101925.84;5031545;28;20051;-48
2022/10/27 10:20:02;;;;;;;3.65;1.58;;;;;;;22.40;49.80;101931.88;5042481;28;20509;-47
2022/10/27 10:22:30;;;;;;;6.60;1.70;;;;;;;22.67;49.67;101923.38;5050549;28;20126;-42
2022/10/27 10:25:03;;;;;;;5.90;1.70;;;;;;;22.75;50.53;101933.03;5052326;28;20028;-43
2022/10/27 10:27:33;;;;;;;6.55;1.70;;;;;;;22.76;50.08;101921.47;5052185;28;20044;-43
2022/10/27 10:30:02;;;;;;;3.70;1.80;;;;;;;22.85;49.60;101926.59;5051950;28;20260;-43
2022/10/27 10:32:36;;;;;;;5.25;1.75;;;;;;;22.47;49.81;101929.97;5051919;28;20028;-44
2022/10/27 10:35:40;;;;;;;4.43;1.90;;;;;;;22.57;50.32;101929.75;5052002;28;20021;-41
2022/10/27 10:38:25;;;;;;;5.18;1.60;;;;;;;22.29;50.64;101925.00;5051868;28;20452;-44
2022/10/27 10:41:12;;;;;;;5.55;1.67;;;;;;;22.63;50.58;101920.78;5051456;28;20108;-42
2022/10/27 10:43:39;;;;;;;6.03;1.90;;;;;;;22.50;51.03;101919.31;5051920;28;20016;-44
2022/10/27 10:46:10;;;;;;;8.05;1.80;;;;;;;22.79;50.32;101921.41;5051503;28;20491;-44
2022/10/27 10:48:38;;;;;;;6.32;1.80;;;;;;;22.71;50.22;101925.97;5051795;28;20039;-46
2022/10/27 10:51:05;;;;;;;4.95;2.00;;;;;;;22.67;50.76;101918.06;5051621;28;20031;-43
2022/10/27 10:53:41;;;;;;;5.28;2.00;;;;;;;22.91;50.20;101913.19;5051958;28;20021;-44
2022/10/27 10:56:23;;;;;;;4.95;1.65;;;;;;;22.96;49.72;101919.28;5067159;28;20044;-45
2022/10/27 10:58:56;;;;;;;5.90;1.88;;;;;;;23.05;50.08;101913.78;5051811;28;20036;-44
2022/10/27 11:01:22;;;;;;;7.45;1.80;;;;;;;23.11;50.19;101910.09;5051197;28;20131;-43
2022/10/27 11:03:49;;;;;;;5.47;1.70;;;;;;;23.20;49.70;101909.88;5051501;28;20469;-45
2022/10/27 11:06:18;;;;;;;4.18;1.77;;;;;;;23.22;49.60;101910.72;5051609;28;20029;-45
2022/10/27 11:08:54;;;;;;;3.90;1.70;;;;;;;23.13;49.71;101914.47;5051641;28;20508;-46
2022/10/27 11:11:23;;;;;;;6.82;1.90;;;;;;;23.18;49.26;101914.34;5052620;28;20032;-45
2022/10/27 11:13:58;;;;;;;6.85;1.90;;;;;;;23.16;50.11;101906.44;5053273;28;20036;-42
2022/10/27 11:16:24;;;;;;;4.72;1.70;;;;;;;23.00;50.24;101903.22;5052348;28;20499;-46
2022/10/27 11:19:05;;;;;;;5.22;1.80;;;;;;;23.07;50.78;101903.94;5052870;28;20029;-43
2022/10/27 11:21:48;;;;;;;5.93;1.70;;;;;;;23.29;49.67;101891.94;5053633;28;20025;-45
2022/10/27 11:24:24;;;;;;;7.30;2.03;;;;;;;23.06;50.20;101884.44;5052749;28;20029;-42
2022/10/27 11:27:11;;;;;;;7.60;1.92;;;;;;;23.10;50.19;101877.31;5051217;28;20021;-43
2022/10/27 11:29:49;;;;;;;4.75;1.92;;;;;;;23.22;50.55;101895.66;5051135;28;20049;-44
2022/10/27 11:32:26;;;;;;;5.80;2.22;;;;;;;23.08;50.16;101894.19;5050729;28;20021;-47
2022/10/27 11:35:09;;;;;;;6.32;1.88;;;;;;;23.05;50.14;101903.97;5066359;28;20396;-44